sensor_id;sensor_type;location;lat;lon;timestamp;pressure;altitude;pressure_sealevel;temperature;humidity
32875;BME280;40468;42.128;24.750;2023-08-30T00:00:06;98516.22;;;23.55;61.01
32875;BME280;40468;42.128;24.750;2023-08-30T00:01:37;98517.22;;;23.54;60.89
32875;BME280;40468;42.128;24.750;2023-08-30T00:03:09;98512.09;;;23.52;61.06
32875;BME280;40468;42.128;24.750;2023-08-30T00:04:41;98513.28;;;23.50;60.93
32875;BME280;40468;42.128;24.750;2023-08-30T00:06:13;98516.75;;;23.50;61.02
32875;BME280;40468;42.128;24.750;2023-08-30T00:07:44;98518.22;;;23.53;60.75
32875;BME280;40468;42.128;24.750;2023-08-30T00:09:17;98511.28;;;23.52;60.93
32875;BME280;40468;42.128;24.750;2023-08-30T00:10:48;98505.97;;;23.52;60.56
32875;BME280;40468;42.128;24.750;2023-08-30T00:12:20;98511.91;;;23.54;60.78
32875;BME280;40468;42.128;24.750;2023-08-30T00:13:51;98500.28;;;23.55;60.45
32875;BME280;40468;42.128;24.750;2023-08-30T00:15:22;98507.41;;;23.54;60.59
32875;BME280;40468;42.128;24.750;2023-08-30T00:16:54;98501.66;;;23.51;60.35
32875;BME280;40468;42.128;24.750;2023-08-30T00:18:24;98497.50;;;23.48;60.81
32875;BME280;40468;42.128;24.750;2023-08-30T00:19:56;98502.22;;;23.46;60.71
32875;BME280;40468;42.128;24.750;2023-08-30T00:21:27;98498.72;;;23.46;60.81
32875;BME280;40468;42.128;24.750;2023-08-30T00:22:59;98499.72;;;23.45;60.72
32875;BME280;40468;42.128;24.750;2023-08-30T00:24:31;98499.09;;;23.43;60.74
32875;BME280;40468;42.128;24.750;2023-08-30T00:26:03;98502.75;;;23.42;60.37
32875;BME280;40468;42.128;24.750;2023-08-30T00:27:33;98507.25;;;23.41;60.35
32875;BME280;40468;42.128;24.750;2023-08-30T00:29:05;98501.09;;;23.41;60.51
32875;BME280;40468;42.128;24.750;2023-08-30T00:30:35;98513.75;;;23.38;60.59
32875;BME280;40468;42.128;24.750;2023-08-30T00:32:07;98509.53;;;23.29;60.69
32875;BME280;40468;42.128;24.750;2023-08-30T00:33:38;98511.28;;;23.22;60.83
32875;BME280;40468;42.128;24.750;2023-08-30T00:35:09;98517.31;;;23.16;61.29
32875;BME280;40468;42.128;24.750;2023-08-30T00:36:40;98513.34;;;23.12;61.37
32875;BME280;40468;42.128;24.750;2023-08-30T00:38:11;98512.06;;;23.08;61.22
32875;BME280;40468;42.128;24.750;2023-08-30T00:39:43;98518.56;;;23.05;61.30
32875;BME280;40468;42.128;24.750;2023-08-30T00:41:15;98510.13;;;23.02;61.52
32875;BME280;40468;42.128;24.750;2023-08-30T00:42:45;98510.31;;;23.00;61.12
32875;BME280;40468;42.128;24.750;2023-08-30T00:44:17;98509.66;;;22.98;61.44
32875;BME280;40468;42.128;24.750;2023-08-30T00:45:48;98522.63;;;22.93;61.42
32875;BME280;40468;42.128;24.750;2023-08-30T00:47:20;98517.84;;;22.88;61.54
32875;BME280;40468;42.128;24.750;2023-08-30T00:48:51;98521.50;;;22.87;61.24
32875;BME280;40468;42.128;24.750;2023-08-30T00:50:22;98523.88;;;22.82;61.17
32875;BME280;40468;42.128;24.750;2023-08-30T00:51:53;98523.88;;;22.82;61.56
32875;BME280;40468;42.128;24.750;2023-08-30T00:53:25;98524.88;;;22.81;61.32
32875;BME280;40468;42.128;24.750;2023-08-30T00:54:58;98524.88;;;22.81;61.19
32875;BME280;40468;42.128;24.750;2023-08-30T00:56:30;98516.09;;;22.81;61.04
32875;BME280;40468;42.128;24.750;2023-08-30T00:58:02;98521.78;;;22.78;61.09
32875;BME280;40468;42.128;24.750;2023-08-30T00:59:34;98517.28;;;22.78;61.12
32875;BME280;40468;42.128;24.750;2023-08-30T01:01:04;98520.56;;;22.80;61.10
32875;BME280;40468;42.128;24.750;2023-08-30T01:02:38;98519.56;;;22.81;60.76
32875;BME280;40468;42.128;24.750;2023-08-30T01:04:09;98524.53;;;22.84;60.84
32875;BME280;40468;42.128;24.750;2023-08-30T01:05:41;98520.84;;;22.85;60.50
32875;BME280;40468;42.128;24.750;2023-08-30T01:07:11;98527.00;;;22.86;60.41
32875;BME280;40468;42.128;24.750;2023-08-30T01:08:43;98523.50;;;22.85;60.35
32875;BME280;40468;42.128;24.750;2023-08-30T01:10:16;98525.50;;;22.83;60.36
32875;BME280;40468;42.128;24.750;2023-08-30T01:11:48;98528.34;;;22.82;60.51
32875;BME280;40468;42.128;24.750;2023-08-30T01:13:21;98527.69;;;22.80;60.25
32875;BME280;40468;42.128;24.750;2023-08-30T01:14:52;98538.31;;;22.80;60.36
32875;BME280;40468;42.128;24.750;2023-08-30T01:16:28;98531.19;;;22.80;60.57
32875;BME280;40468;42.128;24.750;2023-08-30T01:17:59;98537.13;;;22.82;60.20
32875;BME280;40468;42.128;24.750;2023-08-30T01:19:36;98538.97;;;22.82;60.29
32875;BME280;40468;42.128;24.750;2023-08-30T01:21:11;98538.16;;;22.81;60.19
32875;BME280;40468;42.128;24.750;2023-08-30T01:22:47;98540.16;;;22.79;60.03
32875;BME280;40468;42.128;24.750;2023-08-30T01:24:23;98546.28;;;22.80;60.01
32875;BME280;40468;42.128;24.750;2023-08-30T01:25:57;98536.47;;;22.80;60.12
32875;BME280;40468;42.128;24.750;2023-08-30T01:27:34;98537.34;;;22.81;59.74
32875;BME280;40468;42.128;24.750;2023-08-30T01:29:07;98538.16;;;22.81;59.61
32875;BME280;40468;42.128;24.750;2023-08-30T01:30:40;98545.28;;;22.81;59.68
32875;BME280;40468;42.128;24.750;2023-08-30T01:32:13;98540.81;;;22.81;59.72
32875;BME280;40468;42.128;24.750;2023-08-30T01:33:44;98538.97;;;22.82;59.79
32875;BME280;40468;42.128;24.750;2023-08-30T01:35:16;98543.28;;;22.83;59.59
32875;BME280;40468;42.128;24.750;2023-08-30T01:36:49;98549.59;;;22.82;59.62
32875;BME280;40468;42.128;24.750;2023-08-30T01:38:21;98553.88;;;22.83;59.58
32875;BME280;40468;42.128;24.750;2023-08-30T01:39:53;98552.25;;;22.82;59.57
32875;BME280;40468;42.128;24.750;2023-08-30T01:41:27;98546.13;;;22.81;59.39
32875;BME280;40468;42.128;24.750;2023-08-30T01:43:00;98548.78;;;22.81;59.29
32875;BME280;40468;42.128;24.750;2023-08-30T01:44:31;98549.94;;;22.79;59.31
32875;BME280;40468;42.128;24.750;2023-08-30T01:46:03;98550.13;;;22.77;59.39
32875;BME280;40468;42.128;24.750;2023-08-30T01:47:35;98550.13;;;22.77;59.44
32875;BME280;40468;42.128;24.750;2023-08-30T01:49:06;98550.97;;;22.78;59.56
32875;BME280;40468;42.128;24.750;2023-08-30T01:50:38;98554.44;;;22.78;59.62
32875;BME280;40468;42.128;24.750;2023-08-30T01:52:09;98553.44;;;22.79;59.20
32875;BME280;40468;42.128;24.750;2023-08-30T01:53:41;98557.09;;;22.78;59.19
32875;BME280;40468;42.128;24.750;2023-08-30T01:55:13;98558.94;;;22.78;59.55
32875;BME280;40468;42.128;24.750;2023-08-30T01:56:45;98559.09;;;22.76;59.57
32875;BME280;40468;42.128;24.750;2023-08-30T01:58:17;98561.59;;;22.78;59.47
32875;BME280;40468;42.128;24.750;2023-08-30T01:59:48;98553.63;;;22.78;59.39
32875;BME280;40468;42.128;24.750;2023-08-30T02:01:19;98563.03;;;22.80;59.02
32875;BME280;40468;42.128;24.750;2023-08-30T02:02:51;98556.72;;;22.81;59.12
32875;BME280;40468;42.128;24.750;2023-08-30T02:04:21;98566.19;;;22.84;59.16
32875;BME280;40468;42.128;24.750;2023-08-30T02:05:56;98559.03;;;22.84;59.02
32875;BME280;40468;42.128;24.750;2023-08-30T02:07:28;98562.66;;;22.83;59.25
32875;BME280;40468;42.128;24.750;2023-08-30T02:09:03;98563.69;;;22.82;58.99
32875;BME280;40468;42.128;24.750;2023-08-30T02:10:35;98554.91;;;22.82;59.17
32875;BME280;40468;42.128;24.750;2023-08-30T02:12:09;98560.22;;;22.82;59.11
32875;BME280;40468;42.128;24.750;2023-08-30T02:13:42;98553.25;;;22.81;58.95
32875;BME280;40468;42.128;24.750;2023-08-30T02:15:14;98548.13;;;22.79;58.88
32875;BME280;40468;42.128;24.750;2023-08-30T02:16:46;98549.94;;;22.79;58.95
32875;BME280;40468;42.128;24.750;2023-08-30T02:18:18;98544.19;;;22.75;58.95
32875;BME280;40468;42.128;24.750;2023-08-30T02:19:49;98545.34;;;22.73;59.10
32875;BME280;40468;42.128;24.750;2023-08-30T02:21:23;98547.00;;;22.74;59.06
32875;BME280;40468;42.128;24.750;2023-08-30T02:22:54;98550.66;;;22.73;59.09
32875;BME280;40468;42.128;24.750;2023-08-30T02:24:29;98556.94;;;22.71;59.11
32875;BME280;40468;42.128;24.750;2023-08-30T02:25:59;98539.28;;;22.64;59.11
32875;BME280;40468;42.128;24.750;2023-08-30T02:27:33;98543.56;;;22.65;59.18
32875;BME280;40468;42.128;24.750;2023-08-30T02:29:05;98546.59;;;22.62;59.21
32875;BME280;40468;42.128;24.750;2023-08-30T02:30:38;98543.09;;;22.61;59.28
32875;BME280;40468;42.128;24.750;2023-08-30T02:32:10;98543.09;;;22.61;59.47
32875;BME280;40468;42.128;24.750;2023-08-30T02:33:40;98538.63;;;22.62;59.45
32875;BME280;40468;42.128;24.750;2023-08-30T02:35:12;98544.75;;;22.62;59.22
32875;BME280;40468;42.128;24.750;2023-08-30T02:36:42;98557.25;;;22.54;59.62
32875;BME280;40468;42.128;24.750;2023-08-30T02:38:14;98547.69;;;22.44;59.74
32875;BME280;40468;42.128;24.750;2023-08-30T02:39:44;98552.41;;;22.34;60.09
32875;BME280;40468;42.128;24.750;2023-08-30T02:41:16;98547.81;;;22.28;60.29
32875;BME280;40468;42.128;24.750;2023-08-30T02:42:47;98546.50;;;22.24;60.34
32875;BME280;40468;42.128;24.750;2023-08-30T02:44:19;98543.00;;;22.23;60.34
32875;BME280;40468;42.128;24.750;2023-08-30T02:45:50;98546.69;;;22.22;60.33
32875;BME280;40468;42.128;24.750;2023-08-30T02:47:22;98551.31;;;22.20;60.43
32875;BME280;40468;42.128;24.750;2023-08-30T02:48:54;98552.66;;;22.16;60.64
32875;BME280;40468;42.128;24.750;2023-08-30T02:50:26;98561.28;;;22.10;60.84
32875;BME280;40468;42.128;24.750;2023-08-30T02:51:56;98560.50;;;22.01;61.28
32875;BME280;40468;42.128;24.750;2023-08-30T02:53:28;98560.19;;;21.96;61.34
32875;BME280;40468;42.128;24.750;2023-08-30T02:54:58;98563.19;;;21.93;61.55
32875;BME280;40468;42.128;24.750;2023-08-30T02:56:31;98558.22;;;21.90;61.73
32875;BME280;40468;42.128;24.750;2023-08-30T02:58:02;98558.06;;;21.92;61.56
32875;BME280;40468;42.128;24.750;2023-08-30T02:59:35;98563.03;;;21.95;61.48
32875;BME280;40468;42.128;24.750;2023-08-30T03:01:06;98558.53;;;21.95;61.23
32875;BME280;40468;42.128;24.750;2023-08-30T03:02:37;98563.19;;;21.93;61.49
32875;BME280;40468;42.128;24.750;2023-08-30T03:04:08;98576.44;;;21.93;61.23
32875;BME280;40468;42.128;24.750;2023-08-30T03:05:39;98563.84;;;21.95;61.21
32875;BME280;40468;42.128;24.750;2023-08-30T03:07:11;98566.97;;;21.99;61.28
32875;BME280;40468;42.128;24.750;2023-08-30T03:08:41;98570.91;;;22.03;61.05
32875;BME280;40468;42.128;24.750;2023-08-30T03:10:13;98567.75;;;22.08;61.11
32875;BME280;40468;42.128;24.750;2023-08-30T03:11:43;98572.72;;;22.11;60.84
32875;BME280;40468;42.128;24.750;2023-08-30T03:13:15;98571.72;;;22.12;60.72
32875;BME280;40468;42.128;24.750;2023-08-30T03:14:47;98565.09;;;22.16;60.55
32875;BME280;40468;42.128;24.750;2023-08-30T03:16:19;98571.03;;;22.18;60.44
32875;BME280;40468;42.128;24.750;2023-08-30T03:17:50;98574.38;;;22.20;60.32
32875;BME280;40468;42.128;24.750;2023-08-30T03:19:21;98582.50;;;22.18;60.42
32875;BME280;40468;42.128;24.750;2023-08-30T03:20:59;98585.16;;;22.18;60.63
32875;BME280;40468;42.128;24.750;2023-08-30T03:22:30;98584.16;;;22.19;60.56
32875;BME280;40468;42.128;24.750;2023-08-30T03:24:02;98588.44;;;22.20;60.47
32875;BME280;40468;42.128;24.750;2023-08-30T03:25:32;98581.97;;;22.23;60.29
32875;BME280;40468;42.128;24.750;2023-08-30T03:27:04;98587.94;;;22.25;60.20
32875;BME280;40468;42.128;24.750;2023-08-30T03:28:35;98588.56;;;22.27;60.24
32875;BME280;40468;42.128;24.750;2023-08-30T03:30:08;98588.22;;;22.30;60.29
32875;BME280;40468;42.128;24.750;2023-08-30T03:31:40;98592.69;;;22.30;60.09
32875;BME280;40468;42.128;24.750;2023-08-30T03:33:10;98593.53;;;22.30;60.03
32875;BME280;40468;42.128;24.750;2023-08-30T03:34:43;98597.19;;;22.29;60.14
32875;BME280;40468;42.128;24.750;2023-08-30T03:36:15;98593.53;;;22.30;60.27
32875;BME280;40468;42.128;24.750;2023-08-30T03:37:46;98597.84;;;22.31;60.11
32875;BME280;40468;42.128;24.750;2023-08-30T03:39:17;98599.50;;;22.32;60.36
32875;BME280;40468;42.128;24.750;2023-08-30T03:40:52;98592.34;;;22.33;60.11
32875;BME280;40468;42.128;24.750;2023-08-30T03:42:23;98586.06;;;22.34;60.29
32875;BME280;40468;42.128;24.750;2023-08-30T03:43:54;98596.84;;;22.32;60.24
32875;BME280;40468;42.128;24.750;2023-08-30T03:45:26;98595.19;;;22.31;60.14
32875;BME280;40468;42.128;24.750;2023-08-30T03:46:58;98598.19;;;22.28;60.50
32875;BME280;40468;42.128;24.750;2023-08-30T03:48:28;98607.13;;;22.27;60.41
32875;BME280;40468;42.128;24.750;2023-08-30T03:50:00;98604.31;;;22.29;60.15
32875;BME280;40468;42.128;24.750;2023-08-30T03:51:30;98603.31;;;22.30;60.34
32875;BME280;40468;42.128;24.750;2023-08-30T03:53:02;98599.19;;;22.27;60.34
32875;BME280;40468;42.128;24.750;2023-08-30T03:54:33;98604.66;;;22.25;60.42
32875;BME280;40468;42.128;24.750;2023-08-30T03:56:04;98604.81;;;22.24;60.28
32875;BME280;40468;42.128;24.750;2023-08-30T03:57:35;98601.19;;;22.25;60.42
32875;BME280;40468;42.128;24.750;2023-08-30T03:59:06;98608.81;;;22.28;60.24
32875;BME280;40468;42.128;24.750;2023-08-30T04:00:39;98611.25;;;22.30;60.06
32875;BME280;40468;42.128;24.750;2023-08-30T04:02:11;98611.25;;;22.30;60.30
32875;BME280;40468;42.128;24.750;2023-08-30T04:03:41;98613.09;;;22.29;59.96
32875;BME280;40468;42.128;24.750;2023-08-30T04:05:13;98612.94;;;22.31;60.11
32875;BME280;40468;42.128;24.750;2023-08-30T04:06:44;98618.06;;;22.32;59.93
32875;BME280;40468;42.128;24.750;2023-08-30T04:08:15;98621.38;;;22.34;60.03
32875;BME280;40468;42.128;24.750;2023-08-30T04:09:46;98624.69;;;22.36;59.91
32875;BME280;40468;42.128;24.750;2023-08-30T04:11:17;98630.63;;;22.38;59.93
32875;BME280;40468;42.128;24.750;2023-08-30T04:12:48;98627.00;;;22.39;59.88
32875;BME280;40468;42.128;24.750;2023-08-30T04:14:19;98627.63;;;22.41;59.75
32875;BME280;40468;42.128;24.750;2023-08-30T04:15:51;98630.13;;;22.43;59.69
32875;BME280;40468;42.128;24.750;2023-08-30T04:17:23;98633.41;;;22.45;59.72
32875;BME280;40468;42.128;24.750;2023-08-30T04:18:54;98629.78;;;22.46;59.87
32875;BME280;40468;42.128;24.750;2023-08-30T04:20:25;98633.09;;;22.48;60.00
32875;BME280;40468;42.128;24.750;2023-08-30T04:21:56;98624.94;;;22.49;59.43
32875;BME280;40468;42.128;24.750;2023-08-30T04:23:27;98622.94;;;22.52;59.44
32875;BME280;40468;42.128;24.750;2023-08-30T04:24:58;98626.22;;;22.54;59.62
32875;BME280;40468;42.128;24.750;2023-08-30T04:26:29;98624.22;;;22.56;59.59
32875;BME280;40468;42.128;24.750;2023-08-30T04:28:01;98632.66;;;22.59;59.22
32875;BME280;40468;42.128;24.750;2023-08-30T04:29:33;98632.66;;;22.59;59.15
32875;BME280;40468;42.128;24.750;2023-08-30T04:31:05;98632.50;;;22.61;59.28
32875;BME280;40468;42.128;24.750;2023-08-30T04:32:36;98630.50;;;22.63;59.21
32875;BME280;40468;42.128;24.750;2023-08-30T04:34:07;98629.03;;;22.60;58.99
32875;BME280;40468;42.128;24.750;2023-08-30T04:35:38;98630.66;;;22.61;58.85
32875;BME280;40468;42.128;24.750;2023-08-30T04:37:09;98626.03;;;22.63;58.76
32875;BME280;40468;42.128;24.750;2023-08-30T04:38:40;98624.84;;;22.66;58.86
32875;BME280;40468;42.128;24.750;2023-08-30T04:40:12;98622.66;;;22.69;58.67
32875;BME280;40468;42.128;24.750;2023-08-30T04:41:42;98621.16;;;22.75;58.46
32875;BME280;40468;42.128;24.750;2023-08-30T04:43:14;98621.78;;;22.77;58.53
32875;BME280;40468;42.128;24.750;2023-08-30T04:44:45;98626.72;;;22.80;58.31
32875;BME280;40468;42.128;24.750;2023-08-30T04:46:17;98625.19;;;22.86;58.19
32875;BME280;40468;42.128;24.750;2023-08-30T04:47:48;98621.38;;;22.88;58.36
32875;BME280;40468;42.128;24.750;2023-08-30T04:49:20;98622.19;;;22.89;58.18
32875;BME280;40468;42.128;24.750;2023-08-30T04:50:57;98622.38;;;22.87;58.06
32875;BME280;40468;42.128;24.750;2023-08-30T04:52:29;98626.53;;;22.90;58.07
32875;BME280;40468;42.128;24.750;2023-08-30T04:54:00;98631.63;;;22.91;58.31
32875;BME280;40468;42.128;24.750;2023-08-30T04:55:31;98634.78;;;22.95;58.12
32875;BME280;40468;42.128;24.750;2023-08-30T04:57:03;98627.81;;;22.94;58.29
32875;BME280;40468;42.128;24.750;2023-08-30T04:58:33;98631.31;;;22.94;57.98
32875;BME280;40468;42.128;24.750;2023-08-30T05:00:05;98625.47;;;22.99;57.93
32875;BME280;40468;42.128;24.750;2023-08-30T05:01:37;98631.25;;;23.03;57.92
32875;BME280;40468;42.128;24.750;2023-08-30T05:03:12;98626.41;;;23.06;57.80
32875;BME280;40468;42.128;24.750;2023-08-30T05:04:42;98633.41;;;23.07;57.81
32875;BME280;40468;42.128;24.750;2023-08-30T05:06:14;98627.22;;;23.07;57.89
32875;BME280;40468;42.128;24.750;2023-08-30T05:07:46;98624.41;;;23.08;57.85
32875;BME280;40468;42.128;24.750;2023-08-30T05:09:17;98621.22;;;23.13;57.94
32875;BME280;40468;42.128;24.750;2023-08-30T05:10:48;98621.69;;;23.16;57.56
32875;BME280;40468;42.128;24.750;2023-08-30T05:12:20;98620.53;;;23.19;57.79
32875;BME280;40468;42.128;24.750;2023-08-30T05:13:50;98620.97;;;23.23;57.51
32875;BME280;40468;42.128;24.750;2023-08-30T05:15:22;98628.59;;;23.26;57.40
32875;BME280;40468;42.128;24.750;2023-08-30T05:16:54;98622.09;;;23.28;57.68
32875;BME280;40468;42.128;24.750;2023-08-30T05:18:25;98630.53;;;23.32;57.68
32875;BME280;40468;42.128;24.750;2023-08-30T05:19:56;98631.72;;;23.29;57.31
32875;BME280;40468;42.128;24.750;2023-08-30T05:21:27;98638.84;;;23.29;57.63
32875;BME280;40468;42.128;24.750;2023-08-30T05:22:58;98638.03;;;23.28;57.39
32875;BME280;40468;42.128;24.750;2023-08-30T05:24:29;98633.72;;;23.27;57.48
32875;BME280;40468;42.128;24.750;2023-08-30T05:26:00;98638.31;;;23.33;57.52
32875;BME280;40468;42.128;24.750;2023-08-30T05:27:32;98640.44;;;23.38;57.37
32875;BME280;40468;42.128;24.750;2023-08-30T05:29:02;98638.06;;;23.43;57.26
32875;BME280;40468;42.128;24.750;2023-08-30T05:30:34;98644.50;;;23.49;57.27
32875;BME280;40468;42.128;24.750;2023-08-30T05:32:06;98650.06;;;23.54;57.04
32875;BME280;40468;42.128;24.750;2023-08-30T05:33:37;98650.38;;;23.59;56.80
32875;BME280;40468;42.128;24.750;2023-08-30T05:35:09;98650.00;;;23.62;57.03
32875;BME280;40468;42.128;24.750;2023-08-30T05:36:39;98651.66;;;23.63;56.95
32875;BME280;40468;42.128;24.750;2023-08-30T05:38:11;98646.63;;;23.68;56.66
32875;BME280;40468;42.128;24.750;2023-08-30T05:39:42;98643.72;;;23.78;56.84
32875;BME280;40468;42.128;24.750;2023-08-30T05:41:13;98642.47;;;23.89;56.65
32875;BME280;40468;42.128;24.750;2023-08-30T05:42:44;98645.69;;;23.99;56.21
32875;BME280;40468;42.128;24.750;2023-08-30T05:44:16;98647.69;;;24.12;56.03
32875;BME280;40468;42.128;24.750;2023-08-30T05:45:46;98651.16;;;24.27;55.92
32875;BME280;40468;42.128;24.750;2023-08-30T05:47:20;98657.13;;;24.44;55.51
32875;BME280;40468;42.128;24.750;2023-08-30T05:48:50;98651.53;;;24.54;55.53
32875;BME280;40468;42.128;24.750;2023-08-30T05:50:22;98653.44;;;24.60;55.22
32875;BME280;40468;42.128;24.750;2023-08-30T05:51:53;98646.72;;;24.64;55.32
32875;BME280;40468;42.128;24.750;2023-08-30T05:53:24;98655.78;;;24.69;55.04
32875;BME280;40468;42.128;24.750;2023-08-30T05:54:56;98659.63;;;24.82;55.06
32875;BME280;40468;42.128;24.750;2023-08-30T05:56:26;98663.81;;;24.91;54.94
32875;BME280;40468;42.128;24.750;2023-08-30T05:57:58;98658.13;;;24.94;54.62
32875;BME280;40468;42.128;24.750;2023-08-30T05:59:29;98666.28;;;24.92;54.86
32875;BME280;40468;42.128;24.750;2023-08-30T06:01:00;98663.81;;;24.91;54.67
32875;BME280;40468;42.128;24.750;2023-08-30T06:02:32;98660.56;;;24.95;55.00
32875;BME280;40468;42.128;24.750;2023-08-30T06:04:05;98659.38;;;24.98;54.45
32875;BME280;40468;42.128;24.750;2023-08-30T06:05:36;98651.38;;;24.98;54.78
32875;BME280;40468;42.128;24.750;2023-08-30T06:07:07;98654.44;;;24.95;54.44
32875;BME280;40468;42.128;24.750;2023-08-30T06:08:39;98658.28;;;24.92;54.81
32875;BME280;40468;42.128;24.750;2023-08-30T06:10:09;98664.81;;;24.90;54.38
32875;BME280;40468;42.128;24.750;2023-08-30T06:11:41;98667.63;;;24.82;54.63
32875;BME280;40468;42.128;24.750;2023-08-30T06:13:11;98666.31;;;24.78;54.96
32875;BME280;40468;42.128;24.750;2023-08-30T06:14:43;98667.53;;;24.75;54.83
32875;BME280;40468;42.128;24.750;2023-08-30T06:16:20;98663.78;;;24.69;54.78
32875;BME280;40468;42.128;24.750;2023-08-30T06:17:53;98660.88;;;24.64;55.05
32875;BME280;40468;42.128;24.750;2023-08-30T06:19:24;98666.19;;;24.64;54.76
32875;BME280;40468;42.128;24.750;2023-08-30T06:20:55;98673.69;;;24.61;55.11
32875;BME280;40468;42.128;24.750;2023-08-30T06:22:26;98663.69;;;24.63;54.95
32875;BME280;40468;42.128;24.750;2023-08-30T06:23:57;98672.41;;;24.71;54.96
32875;BME280;40468;42.128;24.750;2023-08-30T06:25:28;98670.28;;;24.82;55.18
32875;BME280;40468;42.128;24.750;2023-08-30T06:26:59;98669.16;;;24.91;54.97
32875;BME280;40468;42.128;24.750;2023-08-30T06:28:30;98665.97;;;25.02;54.64
32875;BME280;40468;42.128;24.750;2023-08-30T06:30:01;98665.09;;;25.16;54.17
32875;BME280;40468;42.128;24.750;2023-08-30T06:31:33;98670.97;;;25.27;53.98
32875;BME280;40468;42.128;24.750;2023-08-30T06:33:06;98662.44;;;25.38;54.02
32875;BME280;40468;42.128;24.750;2023-08-30T06:34:37;98666.25;;;25.50;53.87
32875;BME280;40468;42.128;24.750;2023-08-30T06:36:08;98671.22;;;25.60;53.65
32875;BME280;40468;42.128;24.750;2023-08-30T06:37:41;98674.75;;;25.67;53.11
32875;BME280;40468;42.128;24.750;2023-08-30T06:39:12;98679.13;;;25.75;53.18
32875;BME280;40468;42.128;24.750;2023-08-30T06:40:44;98679.31;;;25.73;52.97
32875;BME280;40468;42.128;24.750;2023-08-30T06:42:15;98678.50;;;25.73;52.71
32875;BME280;40468;42.128;24.750;2023-08-30T06:43:46;98685.72;;;25.79;52.61
32875;BME280;40468;42.128;24.750;2023-08-30T06:45:17;98685.44;;;25.89;52.47
32875;BME280;40468;42.128;24.750;2023-08-30T06:46:48;98681.16;;;25.94;52.40
32875;BME280;40468;42.128;24.750;2023-08-30T06:48:20;98682.41;;;25.98;52.56
32875;BME280;40468;42.128;24.750;2023-08-30T06:49:52;98673.84;;;26.09;52.21
32875;BME280;40468;42.128;24.750;2023-08-30T06:51:22;98678.66;;;26.21;52.33
32875;BME280;40468;42.128;24.750;2023-08-30T06:52:54;98685.25;;;26.31;51.98
32875;BME280;40468;42.128;24.750;2023-08-30T06:54:25;98690.00;;;26.36;51.96
32875;BME280;40468;42.128;24.750;2023-08-30T06:55:56;98683.25;;;26.40;51.59
32875;BME280;40468;42.128;24.750;2023-08-30T06:57:28;98689.63;;;26.46;51.73
32875;BME280;40468;42.128;24.750;2023-08-30T06:58:59;98682.31;;;26.54;51.79
32875;BME280;40468;42.128;24.750;2023-08-30T07:00:30;98687.91;;;26.66;51.50
32875;BME280;40468;42.128;24.750;2023-08-30T07:02:01;98689.19;;;26.77;51.24
32875;BME280;40468;42.128;24.750;2023-08-30T07:03:34;98694.53;;;26.90;50.89
32875;BME280;40468;42.128;24.750;2023-08-30T07:05:05;98690.47;;;27.01;50.79
32875;BME280;40468;42.128;24.750;2023-08-30T07:06:36;98694.38;;;27.12;50.58
32875;BME280;40468;42.128;24.750;2023-08-30T07:08:07;98691.97;;;27.23;50.47
32875;BME280;40468;42.128;24.750;2023-08-30T07:09:39;98697.13;;;27.38;50.47
32875;BME280;40468;42.128;24.750;2023-08-30T07:11:09;98697.75;;;27.54;50.71
32875;BME280;40468;42.128;24.750;2023-08-30T07:12:41;98686.03;;;27.68;50.16
32875;BME280;40468;42.128;24.750;2023-08-30T07:14:13;98685.41;;;27.73;50.02
32875;BME280;40468;42.128;24.750;2023-08-30T07:15:44;98689.53;;;27.75;50.25
32875;BME280;40468;42.128;24.750;2023-08-30T07:17:17;98697.97;;;27.85;49.97
32875;BME280;40468;42.128;24.750;2023-08-30T07:18:48;98693.03;;;27.96;49.91
32875;BME280;40468;42.128;24.750;2023-08-30T07:20:20;98696.28;;;28.11;49.89
32875;BME280;40468;42.128;24.750;2023-08-30T07:21:51;98694.59;;;28.30;49.24
32875;BME280;40468;42.128;24.750;2023-08-30T07:23:22;98692.31;;;28.40;49.34
32875;BME280;40468;42.128;24.750;2023-08-30T07:24:53;98694.75;;;28.48;49.16
32875;BME280;40468;42.128;24.750;2023-08-30T07:26:24;98690.41;;;28.54;48.67
32875;BME280;40468;42.128;24.750;2023-08-30T07:27:55;98696.78;;;28.66;48.48
32875;BME280;40468;42.128;24.750;2023-08-30T07:29:26;98691.72;;;28.83;48.25
32875;BME280;40468;42.128;24.750;2023-08-30T07:31:01;98691.66;;;28.96;47.78
32875;BME280;40468;42.128;24.750;2023-08-30T07:32:33;98687.91;;;29.04;47.46
32875;BME280;40468;42.128;24.750;2023-08-30T07:34:06;98683.91;;;29.20;47.24
32875;BME280;40468;42.128;24.750;2023-08-30T07:35:38;98688.97;;;29.35;47.08
32875;BME280;40468;42.128;24.750;2023-08-30T07:37:16;98683.59;;;29.60;46.67
32875;BME280;40468;42.128;24.750;2023-08-30T07:38:48;98681.31;;;29.88;46.16
32875;BME280;40468;42.128;24.750;2023-08-30T07:40:18;98683.72;;;30.15;45.99
32875;BME280;40468;42.128;24.750;2023-08-30T07:41:51;98681.50;;;30.49;45.55
32875;BME280;40468;42.128;24.750;2023-08-30T07:43:21;98683.09;;;30.87;44.71
32875;BME280;40468;42.128;24.750;2023-08-30T07:44:53;98686.72;;;31.22;44.04
32875;BME280;40468;42.128;24.750;2023-08-30T07:46:23;98686.94;;;31.51;43.14
32875;BME280;40468;42.128;24.750;2023-08-30T07:47:55;98683.78;;;31.66;42.56
32875;BME280;40468;42.128;24.750;2023-08-30T07:49:28;98686.13;;;31.74;41.87
32875;BME280;40468;42.128;24.750;2023-08-30T07:50:59;98680.06;;;31.90;41.85
32875;BME280;40468;42.128;24.750;2023-08-30T07:52:30;98684.84;;;32.00;41.06
32875;BME280;40468;42.128;24.750;2023-08-30T07:54:01;98682.03;;;32.18;40.81
32875;BME280;40468;42.128;24.750;2023-08-30T07:55:32;98684.81;;;32.24;40.25
32875;BME280;40468;42.128;24.750;2023-08-30T07:57:03;98683.53;;;32.26;40.37
32875;BME280;40468;42.128;24.750;2023-08-30T07:58:35;98689.63;;;32.45;39.80